createdAt,value
2023-08-21T00:00:52.274Z,77.00
2023-08-21T00:03:21.411Z,77.00
2023-08-21T00:05:50.555Z,77.00
2023-08-21T00:08:19.638Z,77.00
2023-08-21T00:10:48.931Z,77.00
2023-08-21T00:13:17.969Z,77.10
2023-08-21T00:15:47.090Z,77.20
2023-08-21T00:18:17.530Z,77.30
2023-08-21T00:20:46.630Z,77.30
2023-08-21T00:23:15.721Z,77.30
2023-08-21T00:25:48.398Z,77.30
2023-08-21T00:28:17.525Z,77.40
2023-08-21T00:30:46.624Z,77.40
2023-08-21T00:33:17.224Z,77.40
2023-08-21T00:35:46.395Z,77.30
2023-08-21T00:38:15.450Z,77.40
2023-08-21T00:40:44.539Z,77.40
2023-08-21T00:43:13.556Z,77.50
2023-08-21T00:45:45.980Z,77.50
2023-08-21T00:48:17.555Z,77.50
2023-08-21T00:50:47.731Z,77.50
2023-08-21T00:53:16.876Z,77.50
2023-08-21T00:55:47.989Z,77.50
2023-08-21T00:58:18.941Z,77.60
2023-08-21T01:00:50.261Z,77.70
2023-08-21T01:03:21.155Z,77.50
2023-08-21T01:05:50.284Z,77.60
2023-08-21T01:08:28.139Z,77.60
2023-08-21T01:11:03.823Z,77.70
2023-08-21T01:13:49.996Z,77.70
2023-08-21T01:16:19.279Z,77.90
2023-08-21T01:18:51.567Z,77.90
2023-08-21T01:21:21.281Z,77.90
2023-08-21T01:23:51.728Z,77.90
2023-08-21T01:26:20.904Z,77.90
2023-08-21T01:28:49.960Z,77.90
2023-08-21T01:31:26.544Z,77.90
2023-08-21T01:34:01.894Z,78.10
2023-08-21T01:36:31.612Z,78.10
2023-08-21T01:39:02.456Z,78.10
2023-08-21T01:41:31.586Z,78.20
2023-08-21T01:44:00.653Z,78.20
2023-08-21T01:46:29.846Z,78.30
2023-08-21T01:48:59.104Z,77.90
2023-08-21T01:51:28.201Z,78.40
2023-08-21T01:53:57.251Z,78.40
2023-08-21T01:56:28.035Z,78.40
2023-08-21T01:58:57.080Z,78.40
2023-08-21T02:01:27.112Z,78.40
2023-08-21T02:03:56.137Z,78.40
2023-08-21T02:06:25.255Z,78.40
2023-08-21T02:08:54.476Z,78.50
2023-08-21T02:11:23.502Z,78.50
2023-08-21T02:13:56.040Z,78.50
2023-08-21T02:16:25.143Z,78.50
2023-08-21T02:18:54.728Z,78.50
2023-08-21T02:21:23.991Z,78.60
2023-08-21T02:23:53.154Z,78.60
2023-08-21T02:26:22.511Z,78.60
2023-08-21T02:28:51.601Z,78.70
2023-08-21T02:31:22.052Z,78.70
2023-08-21T02:33:51.754Z,78.70
2023-08-21T02:36:22.547Z,78.80
2023-08-21T02:38:53.275Z,78.80
2023-08-21T02:41:22.350Z,78.80
2023-08-21T02:43:52.357Z,78.80
2023-08-21T02:46:22.869Z,78.80
2023-08-21T02:48:51.941Z,78.90
2023-08-21T02:51:20.993Z,79.00
2023-08-21T02:53:50.076Z,79.00
2023-08-21T02:56:19.226Z,79.10
2023-08-21T02:58:48.232Z,79.10
2023-08-21T03:01:18.363Z,79.20
2023-08-21T03:03:48.985Z,79.20
2023-08-21T03:06:18.695Z,79.20
2023-08-21T03:08:47.899Z,79.30
2023-08-21T03:11:17.038Z,79.40
2023-08-21T03:13:46.094Z,79.40
2023-08-21T03:16:15.396Z,79.40
2023-08-21T03:19:01.611Z,79.40
2023-08-21T03:21:32.611Z,79.50
2023-08-21T03:24:04.763Z,79.50
2023-08-21T03:26:34.736Z,79.50
2023-08-21T03:29:04.026Z,79.50
2023-08-21T03:31:33.712Z,79.50
2023-08-21T03:34:04.221Z,79.60
2023-08-21T03:36:33.439Z,79.70
2023-08-21T03:39:06.939Z,79.70
2023-08-21T03:41:39.837Z,79.70
2023-08-21T03:44:11.310Z,79.70
2023-08-21T03:46:41.106Z,79.80
2023-08-21T03:49:11.550Z,79.90
2023-08-21T03:51:40.620Z,79.90
2023-08-21T03:54:09.795Z,79.90
2023-08-21T03:56:39.328Z,79.90
2023-08-21T03:59:08.425Z,80.00
2023-08-21T04:01:37.536Z,80.00
2023-08-21T04:04:06.626Z,80.10
2023-08-21T04:06:37.138Z,80.20
2023-08-21T04:09:07.558Z,80.20
2023-08-21T04:11:37.057Z,80.30
2023-08-21T04:14:06.282Z,80.30
2023-08-21T04:16:35.361Z,80.30
2023-08-21T04:19:05.121Z,80.40
2023-08-21T04:21:34.171Z,80.50
2023-08-21T04:24:04.723Z,80.40
2023-08-21T04:26:33.772Z,80.40
2023-08-21T04:29:02.769Z,80.40
2023-08-21T04:31:32.972Z,80.40
2023-08-21T04:34:02.040Z,80.40
2023-08-21T04:36:31.307Z,80.50
2023-08-21T04:39:00.768Z,80.60
2023-08-21T04:41:31.287Z,80.60
2023-08-21T04:44:01.524Z,80.70
2023-08-21T04:46:30.745Z,80.80
2023-08-21T04:49:00.048Z,80.80
2023-08-21T04:51:29.241Z,80.80
2023-08-21T04:54:01.183Z,80.90
2023-08-21T04:56:31.581Z,80.90
2023-08-21T04:59:00.722Z,80.80
2023-08-21T05:01:32.465Z,80.90
2023-08-21T05:04:03.152Z,81.00
2023-08-21T05:06:32.996Z,81.10
2023-08-21T05:09:02.082Z,81.20
2023-08-21T05:11:32.958Z,81.20
2023-08-21T05:14:02.993Z,81.30
2023-08-21T05:16:32.339Z,81.30
2023-08-21T05:19:01.526Z,81.30
2023-08-21T05:21:31.860Z,81.20
2023-08-21T05:24:01.223Z,81.20
2023-08-21T05:26:32.413Z,81.30
2023-08-21T05:29:01.906Z,81.30
2023-08-21T05:31:31.147Z,82.20
2023-08-21T05:34:01.116Z,81.30
2023-08-21T05:36:30.163Z,81.20
2023-08-21T05:39:01.042Z,81.30
2023-08-21T05:41:33.250Z,81.30
2023-08-21T05:44:02.520Z,81.40
2023-08-21T05:46:32.026Z,81.40
2023-08-21T05:49:01.275Z,82.20
2023-08-21T05:51:31.845Z,81.30
2023-08-21T05:54:00.870Z,81.40
2023-08-21T05:56:30.558Z,81.30
2023-08-21T05:59:01.056Z,81.40
2023-08-21T06:01:30.130Z,81.40
2023-08-21T06:04:01.405Z,81.40
2023-08-21T06:06:39.496Z,81.40
2023-08-21T06:09:10.052Z,81.40
2023-08-21T06:11:40.045Z,81.40
2023-08-21T06:14:11.037Z,81.40
2023-08-21T06:16:40.926Z,81.40
2023-08-21T06:19:11.199Z,81.30
2023-08-21T06:21:40.306Z,81.70
2023-08-21T06:24:09.464Z,81.30
2023-08-21T06:26:38.546Z,82.10
2023-08-21T06:29:07.645Z,81.30
2023-08-21T06:31:38.101Z,81.30
2023-08-21T06:34:07.790Z,81.40
2023-08-21T06:36:36.944Z,81.40
2023-08-21T06:39:07.149Z,81.30
2023-08-21T06:41:36.274Z,81.40
2023-08-21T06:44:05.656Z,81.40
2023-08-21T06:46:35.487Z,81.40
2023-08-21T06:49:10.578Z,81.30
2023-08-21T06:51:39.603Z,81.20
2023-08-21T06:54:08.854Z,81.10
2023-08-21T06:56:38.168Z,80.90
2023-08-21T06:59:07.264Z,80.90
2023-08-21T07:01:36.451Z,80.70
2023-08-21T07:04:07.038Z,80.70
2023-08-21T07:06:36.205Z,80.60
2023-08-21T07:09:05.682Z,80.50
2023-08-21T07:11:34.761Z,80.30
2023-08-21T07:14:04.650Z,80.10
2023-08-21T07:16:33.843Z,80.00
2023-08-21T07:19:03.952Z,80.10
2023-08-21T07:21:37.352Z,80.10
2023-08-21T07:24:07.038Z,80.10
2023-08-21T07:26:36.228Z,80.20
2023-08-21T07:29:06.355Z,80.20
2023-08-21T07:31:37.328Z,80.30
2023-08-21T07:34:06.849Z,81.10
2023-08-21T07:36:37.569Z,80.20
2023-08-21T07:39:06.994Z,80.30
2023-08-21T07:41:36.946Z,80.40
2023-08-21T07:44:06.315Z,80.40
2023-08-21T07:46:35.559Z,80.30
2023-08-21T07:49:04.637Z,80.00
2023-08-21T07:51:33.807Z,79.90
2023-08-21T07:54:04.308Z,79.80
2023-08-21T07:56:36.710Z,79.60
2023-08-21T07:59:05.930Z,79.40
2023-08-21T08:01:35.192Z,79.20
2023-08-21T08:04:04.502Z,79.20
2023-08-21T08:06:34.496Z,79.00
2023-08-21T08:09:05.690Z,78.90
2023-08-21T08:11:34.817Z,78.80
2023-08-21T08:14:03.986Z,78.70
2023-08-21T08:16:33.121Z,78.80
2023-08-21T08:19:02.271Z,79.00
2023-08-21T08:21:31.381Z,79.20
2023-08-21T08:24:00.527Z,79.50
2023-08-21T08:26:31.090Z,79.50
2023-08-21T08:29:00.225Z,79.40
2023-08-21T08:31:29.668Z,79.30
2023-08-21T08:33:58.785Z,79.10
2023-08-21T08:36:27.929Z,79.10
2023-08-21T08:38:56.963Z,79.10
2023-08-21T08:41:33.023Z,79.00
2023-08-21T08:44:03.817Z,78.80
2023-08-21T08:46:33.229Z,78.40
2023-08-21T08:49:03.317Z,78.20
2023-08-21T08:51:34.155Z,78.00
2023-08-21T08:54:03.399Z,77.80
2023-08-21T08:56:33.879Z,77.50
2023-08-21T08:59:03.225Z,77.30
2023-08-21T09:01:32.350Z,76.90
2023-08-21T09:04:01.625Z,76.80
2023-08-21T09:06:31.070Z,76.60
2023-08-21T09:09:00.105Z,76.40
2023-08-21T09:11:29.877Z,76.20
2023-08-21T09:14:01.081Z,76.10
2023-08-21T09:16:30.377Z,76.10
2023-08-21T09:18:59.949Z,76.10
2023-08-21T09:21:31.074Z,75.90
2023-08-21T09:24:01.611Z,75.70
2023-08-21T09:26:34.234Z,75.50
2023-08-21T09:29:07.152Z,75.20
2023-08-21T09:31:40.765Z,75.10
2023-08-21T09:34:10.587Z,75.10
2023-08-21T09:36:41.505Z,75.00
2023-08-21T09:39:19.392Z,75.80
2023-08-21T09:41:57.612Z,74.70
2023-08-21T09:44:28.214Z,74.80
2023-08-21T09:46:57.574Z,74.90
2023-08-21T09:49:26.704Z,74.80
2023-08-21T09:51:57.744Z,74.70
2023-08-21T09:54:27.371Z,74.70
2023-08-21T09:56:57.475Z,74.60
2023-08-21T09:59:28.063Z,74.50
2023-08-21T10:01:59.310Z,74.40
2023-08-21T10:04:29.879Z,74.30
2023-08-21T10:07:00.550Z,74.30
2023-08-21T10:09:30.955Z,74.30
2023-08-21T10:12:00.694Z,74.40
2023-08-21T10:14:31.430Z,74.40
2023-08-21T10:17:00.959Z,74.50
2023-08-21T10:19:33.432Z,74.60
2023-08-21T10:22:04.363Z,74.80
2023-08-21T10:24:38.894Z,75.00
2023-08-21T10:27:09.816Z,75.10
2023-08-21T10:29:41.277Z,75.20
2023-08-21T10:32:11.163Z,75.30
2023-08-21T10:34:40.652Z,75.20
2023-08-21T10:37:13.720Z,75.20
2023-08-21T10:39:57.494Z,74.90
2023-08-21T10:42:41.110Z,75.20
2023-08-21T10:45:15.304Z,73.60
2023-08-21T10:47:45.768Z,73.30
2023-08-21T10:50:14.868Z,73.20
2023-08-21T10:52:46.391Z,73.10
2023-08-21T10:55:17.125Z,72.70
2023-08-21T10:57:49.335Z,72.30
2023-08-21T11:00:21.734Z,71.80
2023-08-21T11:02:51.655Z,71.70
2023-08-21T11:05:21.039Z,71.70
2023-08-21T11:07:50.826Z,71.80
2023-08-21T11:10:21.015Z,71.70
2023-08-21T11:12:54.736Z,71.70
2023-08-21T11:15:26.627Z,72.00
2023-08-21T11:18:00.949Z,72.20
2023-08-21T11:20:31.002Z,72.40
2023-08-21T11:23:01.974Z,73.40
2023-08-21T11:25:31.605Z,72.40
2023-08-21T11:28:00.810Z,72.50
2023-08-21T11:30:32.715Z,72.50
2023-08-21T11:33:08.927Z,72.50
2023-08-21T11:35:38.331Z,72.30
2023-08-21T11:38:10.164Z,72.20
2023-08-21T11:40:39.488Z,72.20
2023-08-21T11:43:10.451Z,72.10
2023-08-21T11:45:56.872Z,72.20
2023-08-21T11:48:29.030Z,72.30
2023-08-21T11:50:58.155Z,72.30
2023-08-21T11:53:35.241Z,72.10
2023-08-21T11:56:04.532Z,71.70
2023-08-21T11:58:33.585Z,71.70
2023-08-21T12:01:11.347Z,71.70
2023-08-21T12:03:41.920Z,71.60
2023-08-21T12:06:12.288Z,71.40
2023-08-21T12:08:41.998Z,71.20
2023-08-21T12:11:11.117Z,70.90
2023-08-21T12:13:40.480Z,70.80
2023-08-21T12:16:11.091Z,70.90
2023-08-21T12:18:40.168Z,71.10
2023-08-21T12:21:09.296Z,71.10
2023-08-21T12:23:38.388Z,71.00
2023-08-21T12:26:07.402Z,71.00
2023-08-21T12:28:36.461Z,70.90
2023-08-21T12:31:05.550Z,70.90
2023-08-21T12:33:36.013Z,71.00
2023-08-21T12:36:05.703Z,71.00
2023-08-21T12:38:35.352Z,71.00
2023-08-21T12:41:04.834Z,70.80
2023-08-21T12:43:34.332Z,70.70
2023-08-21T12:46:03.678Z,70.60
2023-08-21T12:48:32.854Z,70.60
2023-08-21T12:51:04.226Z,70.60
2023-08-21T12:53:33.101Z,70.50
2023-08-21T12:56:02.119Z,70.30
2023-08-21T12:58:31.832Z,70.00
2023-08-21T13:01:01.078Z,70.10
2023-08-21T13:03:30.342Z,70.30
2023-08-21T13:05:59.572Z,70.30
2023-08-21T13:08:30.253Z,70.10
2023-08-21T13:10:59.423Z,70.00
2023-08-21T13:13:28.484Z,69.80
2023-08-21T13:15:57.492Z,69.80
2023-08-21T13:18:26.679Z,69.80
2023-08-21T13:20:55.942Z,69.80
2023-08-21T13:23:25.323Z,69.70
2023-08-21T13:25:56.012Z,69.60
2023-08-21T13:28:25.123Z,69.80
2023-08-21T13:30:55.095Z,69.90
2023-08-21T13:33:24.237Z,69.90
2023-08-21T13:35:53.577Z,70.30
2023-08-21T13:38:22.904Z,70.10
2023-08-21T13:40:52.335Z,70.00
2023-08-21T13:43:26.266Z,70.00
2023-08-21T13:45:58.539Z,69.70
2023-08-21T13:48:27.705Z,69.80
2023-08-21T13:50:56.812Z,69.60
2023-08-21T13:53:25.881Z,69.50
2023-08-21T13:55:55.058Z,69.50
2023-08-21T13:58:25.569Z,69.20
2023-08-21T14:00:55.039Z,69.20
2023-08-21T14:03:27.330Z,69.10
2023-08-21T14:05:58.010Z,69.00
2023-08-21T14:08:28.364Z,68.90
2023-08-21T14:10:57.809Z,68.90
2023-08-21T14:13:28.801Z,68.90
2023-08-21T14:15:57.910Z,68.90
2023-08-21T14:18:27.030Z,68.90
2023-08-21T14:20:56.062Z,68.90
2023-08-21T14:23:25.130Z,68.90
2023-08-21T14:25:54.241Z,68.70
2023-08-21T14:28:23.375Z,68.60
2023-08-21T14:30:54.372Z,68.50
2023-08-21T14:33:23.596Z,68.50
2023-08-21T14:35:52.787Z,68.40
2023-08-21T14:38:21.916Z,68.50
2023-08-21T14:40:52.290Z,68.40
2023-08-21T14:43:21.402Z,68.50
2023-08-21T14:45:50.617Z,68.50
2023-08-21T14:48:21.229Z,68.40
2023-08-21T14:50:50.315Z,68.60
2023-08-21T14:53:19.554Z,68.60
2023-08-21T14:55:48.614Z,69.00
2023-08-21T14:58:17.691Z,68.50
2023-08-21T15:00:46.770Z,68.30
2023-08-21T15:03:15.997Z,68.30
2023-08-21T15:05:46.659Z,68.40
2023-08-21T15:08:16.005Z,68.40
2023-08-21T15:10:45.093Z,68.50
2023-08-21T15:13:14.159Z,68.30
2023-08-21T15:15:43.394Z,68.20
2023-08-21T15:18:12.749Z,68.10
2023-08-21T15:20:41.938Z,68.10
2023-08-21T15:23:12.312Z,68.10
2023-08-21T15:25:41.577Z,68.10
2023-08-21T15:28:10.651Z,67.70
2023-08-21T15:30:39.916Z,67.90
2023-08-21T15:33:09.074Z,68.00
2023-08-21T15:35:38.177Z,67.90
2023-08-21T15:38:07.264Z,67.90
2023-08-21T15:40:37.700Z,67.90
2023-08-21T15:43:09.883Z,67.90
2023-08-21T15:45:39.148Z,68.00
2023-08-21T15:48:08.540Z,67.90
2023-08-21T15:50:37.559Z,68.00
2023-08-21T15:53:08.403Z,67.90
2023-08-21T15:55:38.942Z,67.90
2023-08-21T15:58:09.028Z,67.80
2023-08-21T16:00:40.473Z,67.80
2023-08-21T16:03:11.849Z,67.60
2023-08-21T16:05:42.914Z,67.70
2023-08-21T16:08:11.966Z,67.70
2023-08-21T16:10:42.377Z,67.70
2023-08-21T16:13:12.105Z,67.60
2023-08-21T16:15:42.178Z,67.80
2023-08-21T16:18:11.712Z,67.80
2023-08-21T16:20:40.847Z,67.70
2023-08-21T16:23:09.927Z,67.70
2023-08-21T16:25:39.015Z,67.80
2023-08-21T16:28:09.585Z,67.90
2023-08-21T16:30:38.646Z,68.00
2023-08-21T16:33:07.809Z,68.80
2023-08-21T16:35:36.916Z,68.00
2023-08-21T16:38:06.322Z,68.00
2023-08-21T16:40:35.440Z,68.20
2023-08-21T16:43:04.769Z,68.20
2023-08-21T16:45:35.294Z,68.20
2023-08-21T16:48:04.668Z,68.10
2023-08-21T16:50:33.750Z,68.20
2023-08-21T16:53:17.608Z,68.20
2023-08-21T16:55:51.784Z,68.10
2023-08-21T16:58:20.916Z,68.10
2023-08-21T17:00:54.561Z,68.20
2023-08-21T17:03:23.855Z,68.20
2023-08-21T17:05:53.055Z,68.20
2023-08-21T17:08:22.189Z,68.10
2023-08-21T17:10:51.250Z,68.10
2023-08-21T17:13:20.344Z,68.10
2023-08-21T17:15:53.700Z,68.20
2023-08-21T17:18:23.106Z,68.20
2023-08-21T17:20:52.288Z,68.20
2023-08-21T17:23:21.366Z,68.20
2023-08-21T17:25:50.401Z,68.30
2023-08-21T17:28:19.477Z,68.30
2023-08-21T17:30:48.920Z,68.30
2023-08-21T17:33:19.348Z,68.40
2023-08-21T17:35:48.416Z,68.40
2023-08-21T17:38:17.460Z,68.40
2023-08-21T17:40:46.859Z,68.40
2023-08-21T17:43:15.989Z,68.50
2023-08-21T17:45:46.863Z,68.60
2023-08-21T17:48:16.078Z,68.70
2023-08-21T17:50:47.072Z,69.60
2023-08-21T17:53:16.109Z,68.70
2023-08-21T17:55:45.225Z,69.00
2023-08-21T17:58:19.221Z,69.00
2023-08-21T18:00:48.502Z,69.00
2023-08-21T18:03:18.013Z,69.10
2023-08-21T18:05:48.575Z,69.10
2023-08-21T18:08:17.700Z,69.00
2023-08-21T18:10:47.638Z,68.90
2023-08-21T18:13:18.543Z,68.80
2023-08-21T18:15:51.028Z,68.80
2023-08-21T18:18:20.086Z,68.80
2023-08-21T18:20:52.432Z,68.80
2023-08-21T18:23:24.427Z,69.60
2023-08-21T18:25:54.381Z,68.80
2023-08-21T18:28:24.952Z,68.70
2023-08-21T18:30:55.249Z,68.80
2023-08-21T18:33:25.195Z,68.80
2023-08-21T18:35:56.281Z,68.90
2023-08-21T18:38:25.386Z,68.90
2023-08-21T18:40:55.084Z,69.00
2023-08-21T18:43:24.302Z,69.00
2023-08-21T18:45:53.584Z,69.00
2023-08-21T18:48:22.756Z,69.00
2023-08-21T18:50:51.970Z,69.00
2023-08-21T18:53:22.510Z,68.90
2023-08-21T18:55:51.689Z,69.00
2023-08-21T18:58:20.723Z,69.00
2023-08-21T19:00:49.815Z,69.10
2023-08-21T19:03:19.051Z,69.20
2023-08-21T19:05:48.207Z,69.30
2023-08-21T19:08:17.253Z,69.20
2023-08-21T19:10:50.074Z,69.20
2023-08-21T19:13:21.664Z,69.10
2023-08-21T19:15:50.759Z,69.10
2023-08-21T19:18:19.898Z,69.10
2023-08-21T19:20:49.153Z,69.10
2023-08-21T19:23:18.186Z,69.30
2023-08-21T19:25:49.294Z,69.20
2023-08-21T19:28:18.522Z,69.20
2023-08-21T19:30:50.626Z,69.10
2023-08-21T19:33:25.050Z,69.10
2023-08-21T19:35:55.326Z,69.20
2023-08-21T19:38:24.661Z,69.20
2023-08-21T19:40:55.260Z,69.30
2023-08-21T19:43:24.482Z,69.50
2023-08-21T19:45:57.126Z,69.50
2023-08-21T19:48:26.637Z,69.50
2023-08-21T19:50:58.765Z,69.40
2023-08-21T19:53:27.934Z,69.40
2023-08-21T19:55:59.279Z,69.50
2023-08-21T19:58:28.451Z,69.40
2023-08-21T20:00:57.682Z,69.50
2023-08-21T20:03:27.023Z,69.40
2023-08-21T20:06:03.108Z,69.50
2023-08-21T20:08:32.773Z,69.60
2023-08-21T20:11:05.768Z,69.70
2023-08-21T20:13:37.912Z,69.80
2023-08-21T20:16:09.691Z,69.90
2023-08-21T20:18:39.903Z,70.00
2023-08-21T20:21:11.412Z,70.00
2023-08-21T20:23:41.077Z,70.10
2023-08-21T20:26:11.731Z,70.10
2023-08-21T20:28:40.871Z,70.10
2023-08-21T20:31:10.009Z,70.20
2023-08-21T20:33:39.157Z,70.10
2023-08-21T20:36:08.600Z,70.10
2023-08-21T20:38:37.678Z,70.10
2023-08-21T20:41:08.707Z,70.10
2023-08-21T20:43:39.392Z,70.20
2023-08-21T20:46:09.567Z,70.30
2023-08-21T20:48:39.495Z,70.20
2023-08-21T20:51:08.573Z,70.30
2023-08-21T20:53:37.836Z,70.40
2023-08-21T20:56:07.399Z,70.40
2023-08-21T20:58:36.707Z,70.60
2023-08-21T21:01:07.420Z,70.60
2023-08-21T21:03:37.085Z,70.60
2023-08-21T21:06:06.840Z,70.70
2023-08-21T21:08:36.158Z,70.60
2023-08-21T21:11:05.872Z,70.70
2023-08-21T21:13:35.244Z,70.80
2023-08-21T21:16:04.744Z,70.80
2023-08-21T21:18:35.448Z,70.80
2023-08-21T21:21:04.613Z,70.90
2023-08-21T21:23:33.926Z,70.90
2023-08-21T21:26:03.832Z,71.00
2023-08-21T21:28:33.076Z,70.90
2023-08-21T21:31:02.276Z,70.90
2023-08-21T21:33:31.377Z,70.90
2023-08-21T21:36:03.974Z,71.00
2023-08-21T21:38:33.156Z,71.10
2023-08-21T21:41:03.428Z,71.10
2023-08-21T21:43:32.491Z,71.10
2023-08-21T21:46:01.668Z,71.20
2023-08-21T21:48:31.025Z,71.30
2023-08-21T21:51:01.616Z,71.30
2023-08-21T21:53:30.865Z,71.40
2023-08-21T21:56:01.790Z,71.40
2023-08-21T21:58:30.869Z,71.50
2023-08-21T22:00:59.990Z,71.40
2023-08-21T22:03:29.334Z,71.40
2023-08-21T22:06:01.110Z,71.40
2023-08-21T22:08:35.213Z,71.40
2023-08-21T22:11:06.897Z,71.50
2023-08-21T22:13:36.249Z,71.60
2023-08-21T22:16:05.723Z,71.80
2023-08-21T22:18:34.765Z,71.70
2023-08-21T22:21:07.421Z,71.60
2023-08-21T22:23:39.588Z,71.50
2023-08-21T22:26:10.886Z,71.40
2023-08-21T22:28:40.065Z,71.40
2023-08-21T22:31:09.957Z,71.50
2023-08-21T22:33:39.126Z,71.40
2023-08-21T22:36:09.067Z,71.30
2023-08-21T22:38:39.586Z,71.40
2023-08-21T22:41:08.588Z,71.40
2023-08-21T22:43:37.592Z,71.40
2023-08-21T22:46:07.284Z,71.40
2023-08-21T22:48:36.670Z,71.50
2023-08-21T22:51:07.066Z,71.50
2023-08-21T22:53:36.297Z,71.50
2023-08-21T22:56:06.855Z,71.60
2023-08-21T22:58:35.960Z,71.70
2023-08-21T23:01:05.331Z,71.80
2023-08-21T23:03:34.452Z,71.90
2023-08-21T23:06:03.709Z,71.90
2023-08-21T23:08:33.230Z,72.00
2023-08-21T23:11:02.227Z,72.10
2023-08-21T23:13:33.407Z,72.10
2023-08-21T23:16:02.513Z,72.20
2023-08-21T23:18:31.595Z,73.00
2023-08-21T23:21:01.340Z,72.20
2023-08-21T23:23:30.428Z,72.20
2023-08-21T23:26:01.106Z,72.20
2023-08-21T23:28:30.997Z,72.20
2023-08-21T23:31:01.946Z,72.30
2023-08-21T23:33:31.173Z,72.40
2023-08-21T23:36:00.586Z,72.40
2023-08-21T23:38:30.292Z,72.50
2023-08-21T23:40:59.332Z,72.50
2023-08-21T23:43:28.521Z,72.60
2023-08-21T23:45:57.512Z,72.70
2023-08-21T23:48:28.024Z,72.70
2023-08-21T23:50:57.113Z,72.70
2023-08-21T23:53:26.109Z,72.80
2023-08-21T23:55:55.333Z,72.80
2023-08-21T23:58:24.394Z,72.80
